Home > Products > Valid Products > MTR

000
SAUS45 KPUB 230157
MTRSPD
METAR KSPD 230156Z AUTO 05005KT 13/07 A3009 RMK AO1 SLP153 T01330067





000
SAUS45 KPUB 230057
MTRSPD
METAR KSPD 230056Z AUTO 06003KT 16/07 A3007 RMK AO1 SLP144 T01560067





000
SAUS45 KPUB 230057
MTRSPD
METAR KSPD 230056Z AUTO 06003KT 16/07 A3007 RMK AO1 SLP144 T01560067





000
SAUS45 KPUB 222357
MTRSPD
METAR KSPD 222356Z AUTO 06006KT 18/07 A3006 RMK AO1 SLP136 T01780067
10233 20178 53007





000
SAUS45 KPUB 222357
MTRSPD
METAR KSPD 222356Z AUTO 06006KT 18/07 A3006 RMK AO1 SLP136 T01780067
10233 20178 53007





000
SAUS45 KPUB 222257
MTRSPD
METAR KSPD 222256Z AUTO VRB06KT 22/06 A3005 RMK AO1 SLP126 T02170061





000
SAUS45 KPUB 222257
MTRSPD
METAR KSPD 222256Z AUTO VRB06KT 22/06 A3005 RMK AO1 SLP126 T02170061





000
SAUS45 KPUB 222157
MTRSPD
METAR KSPD 222156Z AUTO 01009KT 23/06 A3004 RMK AO1 SLP122 T02280061





000
SAUS45 KPUB 222057
MTRSPD
METAR KSPD 222056Z AUTO 04005KT 23/06 A3004 RMK AO1 SLP119 T02280061
56010





000
SAUS45 KPUB 221957
MTRSPD
METAR KSPD 221956Z AUTO 03006G14KT 23/06 A3004 RMK AO1 SLP120
T02280061





000
SAUS45 KPUB 221857
MTRSPD
METAR KSPD 221856Z AUTO 01009KT 22/06 A3005 RMK AO1 SLP129 T02220061





000
SAUS45 KPUB 221757
MTRSPD
METAR KSPD 221756Z AUTO 02010KT 22/07 A3007 RMK AO1 SLP135 T02170072
10222 20128 50004





000
SAUS45 KPUB 221757
MTRSPD
METAR KSPD 221756Z AUTO 02010KT 22/07 A3007 RMK AO1 SLP135 T02170072
10222 20128 50004





000
SAUS45 KPUB 221657
MTRSPD
METAR KSPD 221656Z AUTO 36012KT 20/07 A3007 RMK AO1 SLP139 T02000072





000
SAUS45 KPUB 221657
MTRSPD
METAR KSPD 221656Z AUTO 36012KT 20/07 A3007 RMK AO1 SLP139 T02000072





000
SAUS45 KPUB 221557
MTRSPD
METAR KSPD 221556Z AUTO 32010KT 18/09 A3007 RMK AO1 SLP137 T01830089





000
SAUS45 KPUB 221557
MTRSPD
METAR KSPD 221556Z AUTO 32010KT 18/09 A3007 RMK AO1 SLP137 T01830089





000
SAUS45 KPUB 221457
MTRSPD
METAR KSPD 221456Z AUTO 24010KT 16/11 A3006 RMK AO1 SLP136 T01560111
53016





000
SAUS45 KPUB 221357
MTRSPD
METAR KSPD 221356Z AUTO 21008KT 13/12 A3003 RMK AO1 SLP128 T01330117





000
SAUS45 KPUB 221257
MTRSPD
METAR KSPD 221256Z AUTO 20010KT 13/11 A3001 RMK AO1 SLP120 T01280111





000
SAUS45 KPUB 221157
MTRSPD
METAR KSPD 221156Z AUTO 20012KT 13/11 A3000 RMK AO1 SLP114 T01280111
10133 20117 53001





000
SAUS45 KPUB 221057
MTRSPD
METAR KSPD 221056Z AUTO 19014KT 13/11 A3000 RMK AO1 SLP112 T01280111





000
SAUS45 KPUB 221057
MTRSPD
METAR KSPD 221056Z AUTO 19014KT 13/11 A3000 RMK AO1 SLP112 T01280111





000
SAUS45 KPUB 220958
MTRSPD
METAR KSPD 220956Z AUTO 19013KT 13/10 A2999 RMK AO1 SLP106 T01280100





000
SAUS45 KPUB 220958
MTRSPD
METAR KSPD 220956Z AUTO 19013KT 13/10 A2999 RMK AO1 SLP106 T01280100





000
SAUS45 KPUB 220857
MTRSPD
METAR KSPD 220856Z AUTO 21013G20KT 13/10 A3000 RMK AO1 SLP107
T01330100 55003





000
SAUS45 KPUB 220757
MTRSPD
METAR KSPD 220756Z AUTO 20016G22KT 13/09 A3000 RMK AO1 SLP106
T01330094





000
SAUS45 KPUB 220657
MTRSPD
METAR KSPD 220656Z AUTO 21006KT 12/09 A3001 RMK AO1 SLP113 T01220094
402390061





000
SAUS45 KPUB 220557
MTRSPD
METAR KSPD 220556Z AUTO 21008KT 13/09 A3001 RMK AO1 SLP112 T01280094
10194 20122 58002





000
SAUS45 KPUB 220557
MTRSPD
METAR KSPD 220556Z AUTO 21008KT 13/09 A3001 RMK AO1 SLP112 T01280094
10194 20122 58002





000
SAUS45 KPUB 220457
MTRSPD
METAR KSPD 220456Z AUTO 19013KT 12/09 A3002 RMK AO1 SLP117 T01220089





000
SAUS45 KPUB 220457
MTRSPD
METAR KSPD 220456Z AUTO 19013KT 12/09 A3002 RMK AO1 SLP117 T01220089





000
SAUS45 KPUB 220357
MTRSPD
METAR KSPD 220356Z AUTO 17012KT 13/08 A3001 RMK AO1 SLP116 T01280083





000
SAUS45 KPUB 220357
MTRSPD
METAR KSPD 220356Z AUTO 17012KT 13/08 A3001 RMK AO1 SLP116 T01280083





000
SAUS45 KPUB 220257
MTRSPD
METAR KSPD 220256Z AUTO 18013KT 14/08 A3002 RMK AO1 SLP125 T01390083
51009





000
SAUS45 KPUB 220157
MTRSPD
METAR KSPD 220156Z AUTO 19011KT 15/08 A3001 RMK AO1 SLP128 T01500083





000
SAUS45 KPUB 220157
MTRSPD
METAR KSPD 220156Z AUTO 19011KT 15/08 A3001 RMK AO1 SLP128 T01500083





000
SAUS45 KPUB 220057
MTRSPD
METAR KSPD 220056Z AUTO 19014KT 17/08 A3000 RMK AO1 SLP123 T01720083





000
SAUS45 KPUB 212357
MTRSPD
METAR KSPD 212356Z AUTO 18015KT 19/08 A2999 RMK AO1 SLP118 T01940078
10239 20194 56007





000
SAUS45 KPUB 212257
MTRSPD
METAR KSPD 212256Z AUTO 19017G26KT 22/07 A3000 RMK AO1 PK WND
19026/2252 SLP115 T02170067





000
SAUS45 KPUB 212257
MTRSPD
METAR KSPD 212256Z AUTO 19017G26KT 22/07 A3000 RMK AO1 PK WND
19026/2252 SLP115 T02170067





000
SAUS45 KPUB 212158
MTRSPD
METAR KSPD 212156Z AUTO 19019G26KT 23/06 A3000 RMK AO1 PK WND
20028/2122 SLP118 T02280061





000
SAUS45 KPUB 212158
MTRSPD
METAR KSPD 212156Z AUTO 19019G26KT 23/06 A3000 RMK AO1 PK WND
20028/2122 SLP118 T02280061





000
SAUS45 KPUB 212105
MTRSPD
METAR KSPD 212056Z AUTO 20015G25KT 23/07 A3001 RMK AO1 PK WND
19029/2008 SLP119 T02330067 56017





000
SAUS45 KPUB 211957
MTRSPD
METAR KSPD 211956Z AUTO 21016G27KT 23/06 A3002 RMK AO1 PK WND
19028/1906 SLP120 T02330061





000
SAUS45 KPUB 211957
MTRSPD
METAR KSPD 211956Z AUTO 21016G27KT 23/06 A3002 RMK AO1 PK WND
19028/1906 SLP120 T02330061





000
SAUS45 KPUB 211658
MTRSPD
METAR KSPD 211656Z AUTO 20017G25KT 21/08 A3009 RMK AO1 SLP145
T02110083





000
SAUS45 KPUB 211658
MTRSPD
METAR KSPD 211656Z AUTO 20017G25KT 21/08 A3009 RMK AO1 SLP145
T02110083





000
SAUS45 KPUB 211557
MTRSPD
METAR KSPD 211556Z AUTO 19016KT 20/09 A3011 RMK AO1 SLP151 T02000094





000
SAUS45 KPUB 211557
MTRSPD
METAR KSPD 211556Z AUTO 19016KT 20/09 A3011 RMK AO1 SLP151 T02000094





000
SAUS45 KPUB 211457
MTRSPD
METAR KSPD 211456Z AUTO 22004KT 15/11 A3011 RMK AO1 SLP159 T01500106
53007





000
SAUS45 KPUB 211357
MTRSPD
METAR KSPD 211356Z AUTO 24006KT 10/08 A3010 RMK AO1 SLP162 T01000083





000
SAUS45 KPUB 211257
MTRSPD
METAR KSPD 211256Z AUTO 25007KT 08/07 A3009 RMK AO1 SLP157 T00830072





000
SAUS45 KPUB 211157
MTRSPD
METAR KSPD 211156Z AUTO 24006KT 07/07 A3008 RMK AO1 SLP152 T00720067
10089 20061 56004





000
SAUS45 KPUB 211157
MTRSPD
METAR KSPD 211156Z AUTO 24006KT 07/07 A3008 RMK AO1 SLP152 T00720067
10089 20061 56004





000
SAUS45 KPUB 211057
MTRSPD
METAR KSPD 211056Z AUTO 24006KT 08/07 A3008 RMK AO1 SLP148 T00780072





000
SAUS45 KPUB 211057
MTRSPD
METAR KSPD 211056Z AUTO 24006KT 08/07 A3008 RMK AO1 SLP148 T00780072





000
SAUS45 KPUB 210957
MTRSPD
METAR KSPD 210956Z AUTO 23004KT 07/07 A3008 RMK AO1 SLP148 T00670067





000
SAUS45 KPUB 210957
MTRSPD
METAR KSPD 210956Z AUTO 23004KT 07/07 A3008 RMK AO1 SLP148 T00670067





000
SAUS45 KPUB 210857
MTRSPD
METAR KSPD 210856Z AUTO 23007KT 08/07 A3010 RMK AO1 SLP150 T00780072
58008





000
SAUS45 KPUB 210757
MTRSPD
METAR KSPD 210756Z AUTO 23006KT 09/08 A3011 RMK AO1 SLP152 T00890083





000
SAUS45 KPUB 210657
MTRSPD
METAR KSPD 210656Z AUTO 23005KT 07/07 A3012 RMK AO1 SLP160 T00720072
402220044





000
SAUS45 KPUB 210557
MTRSPD
METAR KSPD 210556Z AUTO 22004KT 08/08 A3012 RMK AO1 SLP161 T00830078
10178 20083 58008





000
SAUS45 KPUB 210457
MTRSPD
METAR KSPD 210456Z AUTO 18007KT 11/09 A3014 RMK AO1 SLP166 T01060094





000
SAUS45 KPUB 210357
MTRSPD
METAR KSPD 210356Z AUTO 16007KT 11/09 A3015 RMK AO1 SLP171 T01110094





000
SAUS45 KPUB 210357
MTRSPD
METAR KSPD 210356Z AUTO 16007KT 11/09 A3015 RMK AO1 SLP171 T01110094





000
SAUS45 KPUB 210257
MTRSPD
METAR KSPD 210256Z AUTO 15009KT 12/09 A3015 RMK AO1 SLP175 T01170094
51007





000
SAUS45 KPUB 210157
MTRSPD
METAR KSPD 210156Z AUTO 14007KT 12/09 A3014 RMK AO1 SLP181 T01170089





000
SAUS45 KPUB 210157
MTRSPD
METAR KSPD 210156Z AUTO 14007KT 12/09 A3014 RMK AO1 SLP181 T01170089





000
SAUS45 KPUB 210057
MTRSPD
METAR KSPD 210056Z AUTO 12007KT 13/08 A3014 RMK AO1 SLP179 T01330083





000
SAUS45 KPUB 202357
MTRSPD
METAR KSPD 202356Z AUTO 11008KT 18/07 A3013 RMK AO1 SLP172 T01780067
10222 20178 56001





000
SAUS45 KPUB 202257
MTRSPD
METAR KSPD 202256Z AUTO 12011KT 21/05 A3013 RMK AO1 SLP168 T02060050





000
SAUS45 KPUB 202157
MTRSPD
METAR KSPD 202156Z AUTO 11009KT 22/07 A3013 RMK AO1 SLP166 T02170067





000
SAUS45 KPUB 202157
MTRSPD
METAR KSPD 202156Z AUTO 11009KT 22/07 A3013 RMK AO1 SLP166 T02170067





000
SAUS45 KPUB 202057
MTRSPD
METAR KSPD 202056Z AUTO 13012G17KT 22/07 A3013 RMK AO1 SLP162
T02220067 56014





000
SAUS45 KPUB 201957
MTRSPD
METAR KSPD 201956Z AUTO 10012G20KT 22/07 A3014 RMK AO1 SLP164
T02220072





000
SAUS45 KPUB 201858 COR
MTRSPD
METAR KSPD 201856Z AUTO 09008G14KT 22/08 A3016 RMK AO1 SLP173
T02170083





000
SAUS45 KPUB 201757
MTRSPD
METAR KSPD 201756Z AUTO 10003KT 20/08 A3018 RMK AO1 SLP181 T02000083
10200 20044 56004





000
SAUS45 KPUB 201657
MTRSPD
METAR KSPD 201656Z AUTO 05008KT 19/08 A3018 RMK AO1 SLP183 T01940083





000
SAUS45 KPUB 201557
MTRSPD
METAR KSPD 201556Z AUTO 03009KT 18/08 A3018 RMK AO1 SLP184 T01780083





000
SAUS45 KPUB 201457
MTRSPD
METAR KSPD 201456Z AUTO 34005KT 15/09 A3019 RMK AO1 SLP186 T01500089
51012





000
SAUS45 KPUB 201357
MTRSPD
METAR KSPD 201356Z AUTO 26003KT 08/06 A3019 RMK AO1 SLP192 T00780061





000
SAUS45 KPUB 201257
MTRSPD
METAR KSPD 201256Z AUTO 26004KT 06/05 A3017 RMK AO1 SLP190 T00610050





000
SAUS45 KPUB 201157
MTRSPD
METAR KSPD 201156Z AUTO 32008KT 04/04 A3015 RMK AO1 SLP178 T00440039
10083 20044 53010





000
SAUS45 KPUB 201057
MTRSPD
METAR KSPD 201056Z AUTO 24007KT 05/04 A3014 RMK AO1 SLP168 T00500039





000
SAUS45 KPUB 200957
MTRSPD
METAR KSPD 200956Z AUTO 32007KT 05/04 A3011 RMK AO1 SLP155 T00500039





000
SAUS45 KPUB 200957
MTRSPD
METAR KSPD 200956Z AUTO 32007KT 05/04 A3011 RMK AO1 SLP155 T00500039





000
SAUS45 KPUB 200857
MTRSPD
METAR KSPD 200856Z AUTO 27005KT 07/05 A3012 RMK AO1 SLP154 T00720050
53003





000
SAUS45 KPUB 200757
MTRSPD
METAR KSPD 200756Z AUTO 35005KT 08/06 A3011 RMK AO1 SLP149 T00830056





000
SAUS45 KPUB 200657
MTRSPD
METAR KSPD 200656Z AUTO 28004KT 07/04 A3011 RMK AO1 SLP153 T00720044
402560072





000
SAUS45 KPUB 200558
MTRSPD
METAR KSPD 200556Z AUTO 30008KT 07/05 A3011 RMK AO1 SLP153 T00720050
10189 20072 50005





000
SAUS45 KPUB 200458 COR
MTRSPD
METAR KSPD 200456Z AUTO 28003KT 08/05 A3011 RMK AO1 SLP156 T00830050





000
SAUS45 KPUB 200357
MTRSPD
METAR KSPD 200356Z AUTO 30005KT 10/05 A3010 RMK AO1 SLP156 T01000050





000
SAUS45 KPUB 200257
MTRSPD
METAR KSPD 200256Z AUTO 03003KT 13/05 A3009 RMK AO1 SLP151 T01280050
51015





    US Dept of Commerce
    National Oceanic and Atmospheric Administration
    National Weather Service
    1325 East West Highway
    Silver Spring, MD 20910
    Page Author: NWS Internet Services Team
Disclaimer
Information Quality
Credits
Glossary
Privacy Policy
Freedom of Information Act (FOIA)
About Us
Career Opportunities